createdAt,value
2019-05-20T00:01:52.797Z,4.30
2019-05-20T00:04:20.195Z,4.67
2019-05-20T00:06:47.694Z,5.03
2019-05-20T00:09:15.185Z,4.03
2019-05-20T00:11:42.605Z,4.20
2019-05-20T00:14:10.062Z,3.90
2019-05-20T00:16:37.510Z,4.23
2019-05-20T00:19:04.931Z,4.67
2019-05-20T00:21:32.401Z,3.90
2019-05-20T00:23:59.866Z,4.63
2019-05-20T00:26:27.239Z,4.30
2019-05-20T00:28:54.725Z,3.67
2019-05-20T00:31:22.288Z,4.10
2019-05-20T00:33:49.823Z,3.50
2019-05-20T00:36:17.205Z,3.53
2019-05-20T00:38:47.706Z,3.80
2019-05-20T00:41:15.303Z,4.47
2019-05-20T00:43:42.771Z,4.17
2019-05-20T00:46:10.231Z,3.90
2019-05-20T00:48:37.684Z,4.20
2019-05-20T00:51:05.252Z,4.63
2019-05-20T00:53:32.666Z,4.17
2019-05-20T00:56:00.244Z,4.43
2019-05-20T00:58:27.804Z,4.63
2019-05-20T01:00:55.276Z,4.73
2019-05-20T01:03:22.779Z,3.83
2019-05-20T01:05:50.234Z,3.70
2019-05-20T01:08:17.689Z,3.60
2019-05-20T01:10:45.185Z,3.47
2019-05-20T01:13:12.864Z,4.30
2019-05-20T01:15:40.251Z,3.00
2019-05-20T01:18:08.052Z,3.00
2019-05-20T01:20:36.649Z,3.40
2019-05-20T01:23:05.001Z,3.53
2019-05-20T01:25:32.454Z,3.10
2019-05-20T01:27:59.915Z,3.57
2019-05-20T01:30:27.306Z,3.37
2019-05-20T01:32:54.921Z,2.70
2019-05-20T01:35:22.591Z,3.27
2019-05-20T01:37:50.271Z,3.43
2019-05-20T01:40:18.182Z,2.90
2019-05-20T01:42:45.716Z,2.70
2019-05-20T01:45:13.489Z,3.03
2019-05-20T01:47:40.881Z,2.70
2019-05-20T01:50:08.818Z,3.10
2019-05-20T01:52:36.291Z,3.00
2019-05-20T01:55:04.737Z,2.70
2019-05-20T01:57:32.189Z,3.23
2019-05-20T01:59:59.656Z,3.10
2019-05-20T02:02:27.090Z,2.80
2019-05-20T02:04:54.595Z,2.93
2019-05-20T02:07:22.030Z,2.60
2019-05-20T02:09:49.451Z,3.27
2019-05-20T02:12:16.970Z,3.20
2019-05-20T02:14:50.767Z,3.10
2019-05-20T02:17:18.248Z,3.10
2019-05-20T02:19:45.671Z,3.30
2019-05-20T02:22:13.171Z,4.03
2019-05-20T02:24:40.699Z,2.90
2019-05-20T02:27:08.173Z,3.20
2019-05-20T02:29:35.657Z,3.27
2019-05-20T02:32:03.262Z,3.63
2019-05-20T02:34:31.097Z,2.90
2019-05-20T02:36:58.475Z,3.77
2019-05-20T02:39:26.829Z,4.30
2019-05-20T02:41:54.668Z,4.30
2019-05-20T02:44:22.230Z,4.37
2019-05-20T02:46:49.676Z,4.57
2019-05-20T02:49:17.103Z,4.40
2019-05-20T02:51:44.478Z,3.50
2019-05-20T02:54:11.947Z,4.40
2019-05-20T02:56:39.547Z,4.47
2019-05-20T02:59:06.912Z,4.10
2019-05-20T03:01:34.381Z,4.67
2019-05-20T03:04:11.640Z,4.00
2019-05-20T03:06:31.278Z,4.60
2019-05-20T03:08:58.835Z,4.27
2019-05-20T03:11:26.248Z,4.67
2019-05-20T03:13:53.683Z,4.40
2019-05-20T03:16:21.116Z,4.50
2019-05-20T03:18:48.572Z,4.60
2019-05-20T03:21:16.027Z,4.80
2019-05-20T03:23:43.412Z,5.27
2019-05-20T03:26:10.971Z,4.73
2019-05-20T03:28:38.444Z,5.63
2019-05-20T03:31:05.948Z,5.80
2019-05-20T03:33:33.454Z,5.37
2019-05-20T03:36:01.078Z,5.30
2019-05-20T03:38:28.470Z,5.50
2019-05-20T03:40:55.918Z,6.17
2019-05-20T03:43:23.384Z,6.00
2019-05-20T03:45:51.020Z,6.10
2019-05-20T03:48:18.488Z,5.13
2019-05-20T03:50:45.864Z,6.00
2019-05-20T03:53:13.438Z,6.50
2019-05-20T03:55:40.950Z,6.43
2019-05-20T03:58:13.013Z,6.67
2019-05-20T04:00:46.065Z,5.53
2019-05-20T04:03:14.354Z,6.90
2019-05-20T04:05:41.874Z,6.53
2019-05-20T04:08:09.434Z,6.53
2019-05-20T04:10:36.936Z,6.47
2019-05-20T04:13:04.390Z,5.93
2019-05-20T04:15:31.872Z,5.77
2019-05-20T04:17:59.395Z,6.60
2019-05-20T04:20:26.852Z,6.20
2019-05-20T04:22:54.324Z,6.77
2019-05-20T04:25:21.763Z,6.40
2019-05-20T04:27:49.303Z,5.20
2019-05-20T04:30:18.977Z,5.57
2019-05-20T04:32:46.643Z,5.67
2019-05-20T04:35:22.118Z,5.93
2019-05-20T04:37:43.937Z,6.97
2019-05-20T04:40:11.864Z,7.57
2019-05-20T04:42:39.435Z,6.43
2019-05-20T04:45:07.484Z,5.90
2019-05-20T04:47:35.032Z,5.37
2019-05-20T04:50:02.612Z,5.77
2019-05-20T04:52:30.058Z,5.57
2019-05-20T04:54:58.460Z,5.53
2019-05-20T04:57:25.812Z,6.30
2019-05-20T04:59:53.286Z,5.77
2019-05-20T05:02:20.837Z,6.50
2019-05-20T05:04:48.753Z,6.63
2019-05-20T05:07:16.206Z,6.57
2019-05-20T05:09:44.843Z,6.20
2019-05-20T05:12:12.359Z,4.77
2019-05-20T05:14:40.379Z,5.40
2019-05-20T05:17:08.036Z,4.60
2019-05-20T05:19:35.482Z,4.53
2019-05-20T05:22:03.002Z,4.30
2019-05-20T05:24:30.569Z,4.40
2019-05-20T05:26:58.127Z,4.13
2019-05-20T05:29:25.682Z,4.00
2019-05-20T05:31:53.251Z,3.40
2019-05-20T05:34:20.619Z,3.60
2019-05-20T05:36:48.052Z,3.17
2019-05-20T05:39:15.713Z,3.27
2019-05-20T05:41:43.180Z,3.60
2019-05-20T05:44:11.157Z,3.67
2019-05-20T05:46:38.659Z,3.67
2019-05-20T05:49:06.121Z,3.43
2019-05-20T05:51:33.593Z,3.47
2019-05-20T05:54:01.022Z,3.20
2019-05-20T05:56:28.463Z,6.10
2019-05-20T05:58:55.981Z,7.73
2019-05-20T06:01:23.449Z,9.23
2019-05-20T06:03:50.884Z,6.47
2019-05-20T06:06:18.449Z,7.33
2019-05-20T06:08:45.838Z,7.67
2019-05-20T06:11:13.273Z,7.40
2019-05-20T06:13:40.832Z,6.73
2019-05-20T06:16:08.330Z,6.47
2019-05-20T06:18:35.757Z,6.57
2019-05-20T06:21:03.365Z,6.20
2019-05-20T06:23:30.833Z,6.43
2019-05-20T06:25:58.318Z,6.10
2019-05-20T06:28:25.758Z,6.97
2019-05-20T06:30:53.313Z,6.43
2019-05-20T06:33:20.884Z,6.37
2019-05-20T06:35:48.852Z,6.63
2019-05-20T06:38:35.242Z,6.90
2019-05-20T06:41:03.256Z,6.80
2019-05-20T06:43:31.903Z,6.83
2019-05-20T06:45:59.331Z,5.23
2019-05-20T06:48:26.878Z,6.40
2019-05-20T06:50:54.553Z,5.97
2019-05-20T06:53:22.034Z,6.73
2019-05-20T06:55:49.501Z,6.13
2019-05-20T06:58:16.973Z,5.67
2019-05-20T07:00:44.530Z,6.23
2019-05-20T07:03:11.929Z,5.80
2019-05-20T07:05:39.498Z,5.17
2019-05-20T07:08:06.930Z,5.53
2019-05-20T07:10:34.308Z,5.33
2019-05-20T07:13:02.660Z,5.67
2019-05-20T07:15:30.282Z,5.60
2019-05-20T07:17:57.724Z,5.77
2019-05-20T07:20:25.191Z,5.87
2019-05-20T07:22:56.159Z,5.07
2019-05-20T07:25:21.987Z,4.67
2019-05-20T07:27:49.506Z,4.17
2019-05-20T07:30:17.460Z,3.63
2019-05-20T07:32:44.929Z,4.47
2019-05-20T07:35:28.854Z,4.87
2019-05-20T07:37:42.566Z,4.70
2019-05-20T07:40:10.480Z,5.77
2019-05-20T07:42:38.051Z,4.80
2019-05-20T07:45:05.936Z,4.37
2019-05-20T07:47:48.848Z,5.07
2019-05-20T07:50:20.797Z,3.80
2019-05-20T07:52:48.202Z,4.00
2019-05-20T07:55:15.991Z,3.47
2019-05-20T07:57:45.767Z,2.83
2019-05-20T08:00:13.924Z,2.90
2019-05-20T08:02:41.344Z,3.00
2019-05-20T08:05:10.545Z,3.80
2019-05-20T08:07:51.849Z,3.50
2019-05-20T08:10:17.216Z,2.60
2019-05-20T08:12:44.659Z,5.10
2019-05-20T08:15:12.447Z,4.33
2019-05-20T08:17:39.846Z,4.60
2019-05-20T08:20:07.785Z,3.27
2019-05-20T08:22:35.286Z,3.10
2019-05-20T08:25:03.758Z,2.37
2019-05-20T08:27:31.515Z,4.27
2019-05-20T08:29:58.989Z,2.67
2019-05-20T08:32:26.505Z,4.57
2019-05-20T08:34:54.013Z,5.60
2019-05-20T08:37:21.444Z,3.70
2019-05-20T08:39:48.971Z,5.83
2019-05-20T08:42:16.429Z,3.20
2019-05-20T08:44:43.964Z,2.60
2019-05-20T08:47:11.514Z,2.60
2019-05-20T08:49:39.278Z,3.17
2019-05-20T08:52:06.887Z,3.27
2019-05-20T08:54:34.331Z,3.53
2019-05-20T08:57:01.787Z,2.97
2019-05-20T08:59:29.158Z,2.77
2019-05-20T09:01:56.656Z,2.37
2019-05-20T09:04:24.115Z,2.77
2019-05-20T09:06:51.618Z,3.37
2019-05-20T09:09:19.162Z,3.20
2019-05-20T09:11:47.828Z,2.67
2019-05-20T09:14:15.659Z,2.90
2019-05-20T09:16:43.198Z,2.77
2019-05-20T09:19:10.627Z,3.47
2019-05-20T09:21:37.976Z,2.53
2019-05-20T09:24:05.463Z,3.27
2019-05-20T09:26:32.924Z,7.50
2019-05-20T09:29:00.386Z,2.70
2019-05-20T09:31:28.362Z,3.30
2019-05-20T09:33:56.235Z,2.57
2019-05-20T09:36:25.932Z,4.47
2019-05-20T09:38:53.071Z,2.70
2019-05-20T09:41:21.051Z,3.07
2019-05-20T09:43:48.590Z,2.73
2019-05-20T09:46:16.173Z,3.50
2019-05-20T09:48:43.622Z,6.07
2019-05-20T09:51:11.199Z,3.17
2019-05-20T09:53:38.577Z,4.97
2019-05-20T09:56:06.022Z,3.20
2019-05-20T09:58:33.508Z,3.83
2019-05-20T10:01:00.991Z,2.90
2019-05-20T10:03:28.548Z,3.23
2019-05-20T10:05:56.012Z,2.67
2019-05-20T10:08:37.016Z,3.13
2019-05-20T10:10:52.875Z,3.90
2019-05-20T10:13:20.422Z,4.00
2019-05-20T10:15:47.891Z,2.73
2019-05-20T10:18:15.343Z,2.77
2019-05-20T10:20:42.756Z,3.30
2019-05-20T10:23:10.241Z,3.17
2019-05-20T10:25:37.722Z,3.43
2019-05-20T10:28:05.122Z,3.17
2019-05-20T10:30:32.658Z,3.43
2019-05-20T10:33:00.288Z,4.17
2019-05-20T10:35:27.894Z,3.13
2019-05-20T10:37:55.318Z,3.40
2019-05-20T10:40:22.779Z,3.33
2019-05-20T10:42:50.383Z,3.40
2019-05-20T10:45:18.783Z,4.30
2019-05-20T10:47:46.594Z,3.60
2019-05-20T10:50:14.402Z,3.13
2019-05-20T10:52:41.878Z,4.20
2019-05-20T10:55:09.561Z,3.77
2019-05-20T10:57:37.015Z,2.50
2019-05-20T11:00:06.237Z,3.87
2019-05-20T11:02:33.718Z,2.63
2019-05-20T11:05:01.203Z,2.23
2019-05-20T11:07:28.663Z,2.50
2019-05-20T11:09:56.108Z,3.33
2019-05-20T11:12:23.676Z,2.50
2019-05-20T11:14:51.142Z,2.20
2019-05-20T11:17:18.533Z,2.17
2019-05-20T11:19:46.037Z,2.37
2019-05-20T11:22:13.458Z,2.00
2019-05-20T11:24:40.935Z,2.40
2019-05-20T11:27:08.388Z,2.30
2019-05-20T11:29:36.020Z,2.27
2019-05-20T11:32:03.600Z,1.93
2019-05-20T11:34:31.246Z,2.63
2019-05-20T11:36:58.774Z,2.43
2019-05-20T11:39:33.385Z,2.00
2019-05-20T11:41:56.006Z,1.83
2019-05-20T11:44:23.677Z,2.23
2019-05-20T11:46:51.164Z,1.50
2019-05-20T11:49:18.646Z,1.70
2019-05-20T11:51:46.099Z,1.70
2019-05-20T11:54:13.548Z,2.37
2019-05-20T11:56:41.098Z,1.87
2019-05-20T11:59:08.548Z,1.83
2019-05-20T12:01:35.988Z,2.03
2019-05-20T12:04:03.528Z,2.20
2019-05-20T12:06:30.996Z,2.43
2019-05-20T12:08:58.477Z,2.30
2019-05-20T12:11:25.948Z,2.40
2019-05-20T12:13:53.321Z,2.40
2019-05-20T12:16:20.807Z,2.27
2019-05-20T12:18:48.264Z,2.77
2019-05-20T12:21:15.699Z,3.30
2019-05-20T12:23:43.142Z,3.80
2019-05-20T12:26:10.567Z,3.23
2019-05-20T12:28:38.004Z,3.97
2019-05-20T12:31:05.556Z,3.67
2019-05-20T12:33:33.000Z,4.47
2019-05-20T12:36:00.470Z,3.73
2019-05-20T12:38:27.957Z,3.10
2019-05-20T12:40:55.399Z,2.37
2019-05-20T12:43:22.862Z,3.10
2019-05-20T12:45:50.489Z,2.17
2019-05-20T12:48:17.883Z,2.10
2019-05-20T12:50:46.757Z,1.80
2019-05-20T12:53:14.182Z,2.10
2019-05-20T12:55:41.619Z,2.57
2019-05-20T12:58:09.058Z,2.60
2019-05-20T13:00:36.502Z,2.37
2019-05-20T13:03:03.979Z,2.70
2019-05-20T13:05:32.023Z,2.30
2019-05-20T13:07:59.468Z,2.40
2019-05-20T13:10:31.308Z,1.60
2019-05-20T13:12:56.256Z,2.13
2019-05-20T13:15:23.901Z,1.80
2019-05-20T13:17:51.382Z,1.80
2019-05-20T13:20:18.883Z,1.13
2019-05-20T13:22:46.350Z,2.10
2019-05-20T13:25:14.067Z,2.13
2019-05-20T13:27:41.477Z,2.17
2019-05-20T13:30:09.646Z,2.10
2019-05-20T13:32:37.076Z,1.57
2019-05-20T13:35:04.653Z,1.67
2019-05-20T13:37:32.234Z,2.10
2019-05-20T13:40:02.943Z,2.17
2019-05-20T13:42:29.004Z,1.80
2019-05-20T13:44:58.919Z,2.27
2019-05-20T13:47:26.394Z,2.13
2019-05-20T13:49:53.792Z,2.33
2019-05-20T13:52:21.278Z,2.20
2019-05-20T13:54:48.946Z,3.63
2019-05-20T13:57:16.406Z,3.70
2019-05-20T13:59:43.960Z,2.43
2019-05-20T14:02:11.475Z,2.33
2019-05-20T14:04:38.879Z,3.23
2019-05-20T14:07:06.377Z,3.93
2019-05-20T14:09:33.831Z,3.43
2019-05-20T14:12:01.332Z,3.30
2019-05-20T14:14:28.824Z,3.53
2019-05-20T14:16:56.251Z,3.20
2019-05-20T14:19:23.630Z,3.97
2019-05-20T14:21:51.146Z,3.27
2019-05-20T14:24:18.666Z,3.83
2019-05-20T14:26:46.111Z,3.33
2019-05-20T14:29:13.554Z,3.33
2019-05-20T14:31:40.897Z,3.80
2019-05-20T14:34:08.459Z,3.13
2019-05-20T14:36:39.862Z,4.30
2019-05-20T14:39:05.815Z,3.00
2019-05-20T14:41:33.207Z,2.50
2019-05-20T14:44:00.800Z,2.87
2019-05-20T14:46:28.420Z,2.73
2019-05-20T14:48:55.809Z,2.60
2019-05-20T14:51:23.308Z,3.20
2019-05-20T14:53:50.893Z,2.93
2019-05-20T14:56:18.565Z,2.70
2019-05-20T14:58:45.937Z,2.23
2019-05-20T15:01:13.426Z,2.70
2019-05-20T15:03:40.920Z,2.80
2019-05-20T15:06:08.392Z,3.03
2019-05-20T15:08:35.758Z,3.07
2019-05-20T15:11:03.283Z,2.97
2019-05-20T15:13:30.818Z,3.43
2019-05-20T15:15:58.255Z,3.20
2019-05-20T15:18:25.686Z,3.83
2019-05-20T15:20:53.174Z,3.23
2019-05-20T15:23:20.661Z,2.90
2019-05-20T15:25:48.138Z,3.23
2019-05-20T15:28:15.697Z,3.30
2019-05-20T15:30:43.158Z,3.33
2019-05-20T15:33:10.591Z,2.80
2019-05-20T15:35:38.089Z,3.03
2019-05-20T15:38:05.543Z,1.33
2019-05-20T15:40:32.906Z,3.63
2019-05-20T15:43:00.343Z,2.17
2019-05-20T15:45:27.857Z,3.20
2019-05-20T15:47:55.414Z,3.30
2019-05-20T15:50:23.513Z,2.63
2019-05-20T15:52:50.984Z,3.23
2019-05-20T15:55:18.339Z,3.03
2019-05-20T15:57:45.745Z,3.20
2019-05-20T16:00:14.795Z,3.70
2019-05-20T16:02:42.206Z,4.07
2019-05-20T16:05:10.020Z,3.40
2019-05-20T16:07:37.496Z,3.57
2019-05-20T16:10:05.145Z,3.90
2019-05-20T16:12:34.382Z,4.23
2019-05-20T16:15:01.942Z,3.50
2019-05-20T16:17:29.378Z,2.90
2019-05-20T16:19:56.814Z,3.60
2019-05-20T16:22:24.332Z,3.60
2019-05-20T16:24:51.880Z,2.57
2019-05-20T16:27:19.389Z,3.27
2019-05-20T16:30:04.757Z,2.50
2019-05-20T16:32:16.235Z,3.07
2019-05-20T16:34:43.617Z,3.30
2019-05-20T16:37:11.125Z,2.63
2019-05-20T16:39:38.585Z,2.10
2019-05-20T16:42:06.316Z,2.10
2019-05-20T16:44:34.330Z,2.20
2019-05-20T16:47:01.932Z,2.77
2019-05-20T16:49:31.653Z,3.20
2019-05-20T16:51:59.131Z,3.27
2019-05-20T16:54:26.679Z,3.30
2019-05-20T16:56:54.235Z,3.67
2019-05-20T16:59:21.668Z,3.37
2019-05-20T17:01:49.243Z,2.73
2019-05-20T17:04:16.886Z,2.60
2019-05-20T17:06:44.389Z,2.67
2019-05-20T17:09:12.790Z,2.77
2019-05-20T17:11:40.291Z,3.97
2019-05-20T17:14:10.585Z,3.00
2019-05-20T17:16:37.128Z,2.40
2019-05-20T17:19:04.587Z,2.43
2019-05-20T17:21:31.968Z,2.00
2019-05-20T17:23:59.427Z,2.10
2019-05-20T17:26:26.964Z,2.33
2019-05-20T17:28:54.493Z,2.00
2019-05-20T17:31:21.973Z,2.10
2019-05-20T17:33:49.420Z,2.37
2019-05-20T17:36:16.905Z,2.10
2019-05-20T17:38:44.385Z,2.50
2019-05-20T17:41:11.926Z,2.07
2019-05-20T17:43:39.859Z,2.60
2019-05-20T17:46:07.929Z,2.30
2019-05-20T17:48:35.458Z,2.43
2019-05-20T17:51:02.949Z,1.83
2019-05-20T17:53:30.480Z,2.53
2019-05-20T17:55:58.544Z,2.17
2019-05-20T17:58:25.974Z,2.20
2019-05-20T18:00:53.410Z,2.50
2019-05-20T18:03:21.349Z,2.47
2019-05-20T18:05:48.835Z,2.50
2019-05-20T18:08:17.043Z,2.37
2019-05-20T18:10:44.507Z,2.60
2019-05-20T18:13:12.003Z,3.77
2019-05-20T18:15:39.492Z,3.50
2019-05-20T18:18:06.950Z,3.50
2019-05-20T18:20:34.430Z,3.70
2019-05-20T18:23:01.970Z,3.00
2019-05-20T18:25:29.578Z,3.27
2019-05-20T18:27:56.985Z,3.70
2019-05-20T18:30:24.621Z,4.33
2019-05-20T18:32:52.084Z,4.90
2019-05-20T18:35:19.490Z,4.47
2019-05-20T18:37:46.946Z,4.40
2019-05-20T18:40:15.230Z,4.00
2019-05-20T18:42:42.908Z,5.10
2019-05-20T18:45:10.711Z,4.60
2019-05-20T18:47:38.210Z,4.33
2019-05-20T18:50:06.863Z,5.70
2019-05-20T18:52:34.517Z,4.87
2019-05-20T18:55:02.386Z,5.37
2019-05-20T18:57:32.779Z,6.57
2019-05-20T19:00:00.734Z,7.27
2019-05-20T19:02:33.356Z,6.17
2019-05-20T19:05:17.637Z,16.37
2019-05-20T19:07:50.555Z,7.43
2019-05-20T19:10:18.828Z,8.20
2019-05-20T19:12:47.150Z,6.27
2019-05-20T19:15:15.677Z,7.10
2019-05-20T19:17:43.253Z,5.67
2019-05-20T19:20:10.978Z,5.60
2019-05-20T19:22:38.362Z,5.77
2019-05-20T19:25:06.973Z,12.50
2019-05-20T19:27:34.837Z,14.53
2019-05-20T19:30:02.501Z,10.43
2019-05-20T19:32:30.248Z,10.10
2019-05-20T19:34:57.612Z,9.83
2019-05-20T19:37:25.092Z,8.40
2019-05-20T19:39:52.632Z,9.50
2019-05-20T19:42:20.078Z,9.10
2019-05-20T19:44:47.527Z,7.90
2019-05-20T19:47:15.566Z,4.33
2019-05-20T19:49:42.972Z,7.53
2019-05-20T19:52:10.461Z,8.30
2019-05-20T19:54:38.004Z,8.53
2019-05-20T19:57:05.397Z,9.90
2019-05-20T19:59:32.980Z,8.47
2019-05-20T20:02:00.471Z,10.60
2019-05-20T20:04:27.842Z,10.93
2019-05-20T20:06:55.259Z,8.50
2019-05-20T20:09:22.829Z,10.13
2019-05-20T20:11:50.397Z,9.63
2019-05-20T20:14:17.851Z,8.50
2019-05-20T20:16:45.286Z,5.67
2019-05-20T20:19:12.752Z,7.10
2019-05-20T20:21:40.180Z,7.57
2019-05-20T20:24:09.573Z,6.40
2019-05-20T20:26:37.157Z,7.23
2019-05-20T20:29:04.781Z,6.00
2019-05-20T20:31:32.223Z,8.30
2019-05-20T20:34:00.098Z,8.27
2019-05-20T20:36:27.586Z,9.10
2019-05-20T20:38:55.177Z,8.43
2019-05-20T20:41:22.637Z,9.57
2019-05-20T20:43:50.079Z,9.53
2019-05-20T20:46:18.094Z,8.07
2019-05-20T20:48:45.521Z,7.27
2019-05-20T20:51:12.970Z,8.43
2019-05-20T20:53:40.327Z,7.60
2019-05-20T20:56:23.817Z,7.70
2019-05-20T20:58:37.181Z,7.57
2019-05-20T21:01:04.559Z,7.07
2019-05-20T21:03:32.100Z,6.97
2019-05-20T21:05:59.548Z,6.07
2019-05-20T21:08:26.941Z,8.13
2019-05-20T21:10:54.461Z,7.80
2019-05-20T21:13:21.908Z,8.93
2019-05-20T21:15:49.426Z,7.37
2019-05-20T21:18:16.802Z,8.13
2019-05-20T21:20:44.283Z,9.07
2019-05-20T21:23:11.694Z,7.83
2019-05-20T21:25:39.262Z,8.10
2019-05-20T21:28:06.659Z,8.33
2019-05-20T21:30:34.219Z,8.67
2019-05-20T21:33:09.434Z,8.30
2019-05-20T21:35:31.016Z,8.63
2019-05-20T21:37:58.567Z,8.23
2019-05-20T21:40:25.947Z,8.00
2019-05-20T21:42:53.383Z,8.70
2019-05-20T21:45:20.990Z,8.53
2019-05-20T21:47:48.435Z,7.53
2019-05-20T21:50:15.873Z,8.23
2019-05-20T21:52:43.242Z,8.53
2019-05-20T21:55:11.020Z,7.60
2019-05-20T21:57:38.496Z,7.87
2019-05-20T22:00:07.633Z,6.90
2019-05-20T22:02:34.999Z,7.30
2019-05-20T22:05:02.421Z,8.20
2019-05-20T22:07:29.909Z,7.57
2019-05-20T22:09:57.346Z,7.80
2019-05-20T22:12:24.750Z,7.70
2019-05-20T22:14:52.225Z,5.00
2019-05-20T22:17:19.670Z,7.07
2019-05-20T22:19:47.085Z,6.23
2019-05-20T22:22:38.510Z,6.83
2019-05-20T22:25:05.951Z,7.30
2019-05-20T22:27:33.420Z,7.00
2019-05-20T22:30:00.801Z,5.87
2019-05-20T22:32:28.339Z,6.77
2019-05-20T22:34:55.873Z,7.60
2019-05-20T22:37:23.259Z,5.17
2019-05-20T22:39:50.710Z,6.80
2019-05-20T22:42:18.132Z,6.33
2019-05-20T22:44:45.600Z,6.90
2019-05-20T22:47:13.027Z,7.13
2019-05-20T22:49:40.937Z,6.40
2019-05-20T22:52:08.347Z,6.67
2019-05-20T22:54:35.792Z,7.30
2019-05-20T22:57:03.282Z,7.03
2019-05-20T22:59:30.717Z,6.90
2019-05-20T23:01:58.199Z,6.90
2019-05-20T23:04:25.632Z,7.10
2019-05-20T23:13:56.374Z,6.80
2019-05-20T23:16:23.810Z,7.63
2019-05-20T23:18:51.521Z,7.97
2019-05-20T23:21:18.983Z,7.47
2019-05-20T23:23:46.409Z,7.00
2019-05-20T23:26:13.868Z,7.63
2019-05-20T23:28:41.345Z,7.33
2019-05-20T23:31:08.812Z,7.17
2019-05-20T23:33:36.328Z,7.27
2019-05-20T23:36:03.831Z,6.97
2019-05-20T23:38:31.259Z,7.87
2019-05-20T23:40:58.699Z,8.00
2019-05-20T23:43:26.140Z,7.23
2019-05-20T23:45:53.554Z,7.20
2019-05-20T23:48:21.021Z,8.17
2019-05-20T23:50:48.432Z,7.33
2019-05-20T23:53:15.941Z,7.57
2019-05-20T23:55:44.217Z,7.33
2019-05-20T23:58:11.584Z,8.43
